Preview of NWS' New Version of Forecast
This preview is not operational and should not be used for support decisions.

Terminal Aerodrome Forecast (TAF)

Issued by National Weather Service (NWS)

                            
000
FTUS42 KMFL 191007 AAA
TAFMIA
TAF AMD
KMIA 191007Z 1910/2012 00000KT P6SM FEW030 FEW250
     FM191400 14005KT P6SM SCT240
     FM191600 14012KT P6SM SCT250
     FM200000 15008KT P6SM SCT100 SCT250
     FM200600 19006KT P6SM SCT100 BKN250
     FM200900 21008KT P6SM VCSH SCT040 BKN060=